sensor_id;sensor_type;location;lat;lon;timestamp;pressure;altitude;pressure_sealevel;temperature;humidity
24996;BME280;13016;52.162;21.034;2022-10-16T13:25:44;100847.78;;;21.25;61.47
24996;BME280;13016;52.162;21.034;2022-10-16T13:28:16;100855.44;;;21.47;60.27
24996;BME280;13016;52.162;21.034;2022-10-16T13:31:00;100851.63;;;21.68;59.59
24996;BME280;13016;52.162;21.034;2022-10-16T13:33:55;100861.78;;;21.74;59.17
24996;BME280;13016;52.162;21.034;2022-10-16T13:36:30;100860.53;;;21.78;59.09
24996;BME280;13016;52.162;21.034;2022-10-16T13:51:23;100872.00;;;21.97;59.14
24996;BME280;13016;52.162;21.034;2022-10-16T13:53:48;100869.53;;;22.04;58.73
24996;BME280;13016;52.162;21.034;2022-10-16T13:56:16;100873.53;;;22.00;58.84
24996;BME280;13016;52.162;21.034;2022-10-16T13:58:43;100869.53;;;22.04;59.16
24996;BME280;13016;52.162;21.034;2022-10-16T14:01:17;100862.53;;;22.11;58.88
24996;BME280;13016;52.162;21.034;2022-10-16T14:03:44;100862.16;;;22.06;58.75
24996;BME280;13016;52.162;21.034;2022-10-16T14:06:19;100856.84;;;22.14;58.78
24996;BME280;13016;52.162;21.034;2022-10-16T14:11:23;100857.50;;;22.33;58.08
24996;BME280;13016;52.162;21.034;2022-10-16T14:13:49;100858.22;;;22.35;58.56
24996;BME280;13016;52.162;21.034;2022-10-16T14:16:29;100859.56;;;22.39;58.40
24996;BME280;13016;52.162;21.034;2022-10-16T14:19:01;100857.56;;;22.41;58.11
24996;BME280;13016;52.162;21.034;2022-10-16T14:21:27;100866.00;;;22.21;58.50
24996;BME280;13016;52.162;21.034;2022-10-16T14:23:55;100870.44;;;22.30;58.27
24996;BME280;13016;52.162;21.034;2022-10-16T14:26:23;100878.22;;;22.33;57.81
24996;BME280;13016;52.162;21.034;2022-10-16T14:29:01;100871.53;;;22.37;57.98
24996;BME280;13016;52.162;21.034;2022-10-16T14:33:55;100875.69;;;22.31;58.07
24996;BME280;13016;52.162;21.034;2022-10-16T14:36:22;100881.78;;;22.16;58.44
24996;BME280;13016;52.162;21.034;2022-10-16T14:41:15;100884.47;;;22.16;58.50
24996;BME280;13016;52.162;21.034;2022-10-16T14:43:50;100881.78;;;21.98;58.59
24996;BME280;13016;52.162;21.034;2022-10-16T14:46:20;100883.69;;;21.88;59.25
24996;BME280;13016;52.162;21.034;2022-10-16T14:48:49;100879.69;;;21.92;59.12
24996;BME280;13016;52.162;21.034;2022-10-16T14:51:17;100880.91;;;21.98;59.17
24996;BME280;13016;52.162;21.034;2022-10-16T14:53:43;100883.78;;;21.96;58.97
24996;BME280;13016;52.162;21.034;2022-10-16T14:56:17;100885.06;;;21.92;58.94
24996;BME280;13016;52.162;21.034;2022-10-16T14:58:43;100880.63;;;22.01;59.16
24996;BME280;13016;52.162;21.034;2022-10-16T15:01:10;100885.00;;;22.02;58.99
24996;BME280;13016;52.162;21.034;2022-10-16T15:03:36;100886.78;;;22.11;59.05
24996;BME280;13016;52.162;21.034;2022-10-16T15:06:02;100885.94;;;22.10;58.94
24996;BME280;13016;52.162;21.034;2022-10-16T15:08:28;100880.91;;;21.98;58.80
24996;BME280;13016;52.162;21.034;2022-10-16T15:10:53;100882.53;;;21.91;59.01
24996;BME280;13016;52.162;21.034;2022-10-16T15:13:19;100879.44;;;21.86;59.67
24996;BME280;13016;52.162;21.034;2022-10-16T15:15:46;100880.16;;;21.88;59.52
24996;BME280;13016;52.162;21.034;2022-10-16T15:18:12;100884.03;;;21.76;59.53
24996;BME280;13016;52.162;21.034;2022-10-16T15:20:39;100904.34;;;21.70;59.95
24996;BME280;13016;52.162;21.034;2022-10-16T15:23:16;100898.94;;;21.80;59.73
24996;BME280;13016;52.162;21.034;2022-10-16T15:25:44;100905.72;;;21.74;60.42
24996;BME280;13016;52.162;21.034;2022-10-16T15:28:10;100900.03;;;21.77;59.82
24996;BME280;13016;52.162;21.034;2022-10-16T15:30:37;100907.41;;;21.75;59.80
24996;BME280;13016;52.162;21.034;2022-10-16T15:33:04;100903.19;;;21.73;59.98
24996;BME280;13016;52.162;21.034;2022-10-16T15:35:29;100906.03;;;21.71;60.44
24996;BME280;13016;52.162;21.034;2022-10-16T15:37:55;100903.50;;;21.70;60.36
24996;BME280;13016;52.162;21.034;2022-10-16T15:40:21;100902.53;;;21.61;60.86
24996;BME280;13016;52.162;21.034;2022-10-16T15:42:48;100903.53;;;21.60;60.83
24996;BME280;13016;52.162;21.034;2022-10-16T15:45:13;100906.09;;;21.61;60.73
24996;BME280;13016;52.162;21.034;2022-10-16T15:47:41;100902.41;;;21.63;60.85
24996;BME280;13016;52.162;21.034;2022-10-16T15:50:06;100914.16;;;21.61;60.99
24996;BME280;13016;52.162;21.034;2022-10-16T15:52:32;100911.25;;;21.45;61.66
24996;BME280;13016;52.162;21.034;2022-10-16T15:54:58;100908.31;;;21.39;62.03
24996;BME280;13016;52.162;21.034;2022-10-16T15:57:24;100916.97;;;21.42;61.78
24996;BME280;13016;52.162;21.034;2022-10-16T15:59:50;100916.81;;;21.44;62.09
24996;BME280;13016;52.162;21.034;2022-10-16T16:02:15;100921.16;;;21.54;61.70
24996;BME280;13016;52.162;21.034;2022-10-16T16:04:41;100923.44;;;21.49;62.04
24996;BME280;13016;52.162;21.034;2022-10-16T16:07:06;100923.81;;;21.64;61.27
24996;BME280;13016;52.162;21.034;2022-10-16T16:09:35;100926.72;;;21.71;61.09
24996;BME280;13016;52.162;21.034;2022-10-16T16:12:00;100925.88;;;21.70;61.45
24996;BME280;13016;52.162;21.034;2022-10-16T16:14:27;100936.09;;;21.67;61.56
24996;BME280;13016;52.162;21.034;2022-10-16T16:16:55;100949.41;;;21.78;61.23
24996;BME280;13016;52.162;21.034;2022-10-16T16:19:21;100944.28;;;21.75;61.08
24996;BME280;13016;52.162;21.034;2022-10-16T16:24:19;100944.28;;;21.75;61.19
24996;BME280;13016;52.162;21.034;2022-10-16T16:26:44;100946.84;;;21.76;61.37
24996;BME280;13016;52.162;21.034;2022-10-16T16:29:14;100950.34;;;21.86;61.07
24996;BME280;13016;52.162;21.034;2022-10-16T16:31:40;100960.00;;;21.89;60.96
24996;BME280;13016;52.162;21.034;2022-10-16T16:34:05;100957.97;;;21.91;61.21
24996;BME280;13016;52.162;21.034;2022-10-16T16:36:31;100955.97;;;21.93;61.15
24996;BME280;13016;52.162;21.034;2022-10-16T16:38:57;100958.19;;;21.80;61.21
24996;BME280;13016;52.162;21.034;2022-10-16T16:41:25;100960.25;;;21.86;61.07
24996;BME280;13016;52.162;21.034;2022-10-16T16:43:50;100960.47;;;21.75;61.78
24996;BME280;13016;52.162;21.034;2022-10-16T16:46:15;100967.69;;;21.74;62.03
24996;BME280;13016;52.162;21.034;2022-10-16T16:48:41;100963.72;;;21.69;61.89
24996;BME280;13016;52.162;21.034;2022-10-16T16:51:09;100967.28;;;21.69;61.75
24996;BME280;13016;52.162;21.034;2022-10-16T16:53:35;100973.81;;;21.67;61.94
24996;BME280;13016;52.162;21.034;2022-10-16T16:56:03;100977.59;;;21.46;62.53
24996;BME280;13016;52.162;21.034;2022-10-16T16:58:28;100981.72;;;21.41;62.99
24996;BME280;13016;52.162;21.034;2022-10-16T17:00:53;100980.91;;;21.21;63.66
24996;BME280;13016;52.162;21.034;2022-10-16T17:03:18;100980.91;;;21.21;64.09
24996;BME280;13016;52.162;21.034;2022-10-16T17:05:56;100988.47;;;21.08;64.48
24996;BME280;13016;52.162;21.034;2022-10-16T17:08:22;100993.56;;;21.11;64.53
24996;BME280;13016;52.162;21.034;2022-10-16T17:10:47;100995.09;;;21.23;63.97
24996;BME280;13016;52.162;21.034;2022-10-16T17:13:12;100996.19;;;21.30;63.59
24996;BME280;13016;52.162;21.034;2022-10-16T17:15:45;100999.91;;;21.20;64.27
24996;BME280;13016;52.162;21.034;2022-10-16T17:18:11;100996.66;;;20.97;65.31
24996;BME280;13016;52.162;21.034;2022-10-16T17:20:36;101007.00;;;20.92;65.36
24996;BME280;13016;52.162;21.034;2022-10-16T17:23:01;101006.59;;;20.87;65.60
24996;BME280;13016;52.162;21.034;2022-10-16T17:25:26;101007.75;;;21.04;65.47
24996;BME280;13016;52.162;21.034;2022-10-16T17:27:52;101016.91;;;21.20;64.59
24996;BME280;13016;52.162;21.034;2022-10-16T17:30:17;101016.31;;;21.26;64.19
24996;BME280;13016;52.162;21.034;2022-10-16T17:32:42;101023.03;;;21.03;65.19
24996;BME280;13016;52.162;21.034;2022-10-16T17:35:07;101015.38;;;20.99;65.33
24996;BME280;13016;52.162;21.034;2022-10-16T17:37:33;101012.97;;;20.77;66.43
24996;BME280;13016;52.162;21.034;2022-10-16T17:39:58;101014.69;;;20.59;67.04
24996;BME280;13016;52.162;21.034;2022-10-16T17:42:23;101016.38;;;20.60;67.20
24996;BME280;13016;52.162;21.034;2022-10-16T17:44:49;101020.75;;;20.51;67.74
24996;BME280;13016;52.162;21.034;2022-10-16T17:47:14;101025.03;;;20.54;67.48
24996;BME280;13016;52.162;21.034;2022-10-16T17:49:39;101034.47;;;20.58;67.62
24996;BME280;13016;52.162;21.034;2022-10-16T17:52:04;101039.72;;;20.59;67.36
24996;BME280;13016;52.162;21.034;2022-10-16T17:54:30;101033.19;;;20.52;67.83
24996;BME280;13016;52.162;21.034;2022-10-16T17:56:55;101033.19;;;20.52;67.65
24996;BME280;13016;52.162;21.034;2022-10-16T17:59:20;101037.75;;;20.52;67.93
24996;BME280;13016;52.162;21.034;2022-10-16T18:01:45;101037.88;;;20.40;68.66
24996;BME280;13016;52.162;21.034;2022-10-16T18:04:14;101037.16;;;20.38;68.88
24996;BME280;13016;52.162;21.034;2022-10-16T18:06:41;101046.75;;;20.31;69.00
24996;BME280;13016;52.162;21.034;2022-10-16T18:09:08;101052.41;;;20.28;69.27
24996;BME280;13016;52.162;21.034;2022-10-16T18:11:34;101042.78;;;20.16;69.84
24996;BME280;13016;52.162;21.034;2022-10-16T18:14:22;101045.03;;;20.21;69.84
24996;BME280;13016;52.162;21.034;2022-10-16T18:16:50;101052.41;;;20.19;70.06
24996;BME280;13016;52.162;21.034;2022-10-16T18:21:44;101058.00;;;20.06;70.42
24996;BME280;13016;52.162;21.034;2022-10-16T18:24:09;101047.81;;;20.10;70.39
24996;BME280;13016;52.162;21.034;2022-10-16T18:26:38;101054.16;;;20.09;70.27
24996;BME280;13016;52.162;21.034;2022-10-16T18:29:03;101057.69;;;20.00;70.95
24996;BME280;13016;52.162;21.034;2022-10-16T18:31:32;101062.22;;;19.99;71.01
24996;BME280;13016;52.162;21.034;2022-10-16T18:33:57;101053.00;;;20.02;70.83
24996;BME280;13016;52.162;21.034;2022-10-16T18:36:25;101057.69;;;20.00;70.84
24996;BME280;13016;52.162;21.034;2022-10-16T18:38:51;101063.94;;;20.10;70.41
24996;BME280;13016;52.162;21.034;2022-10-16T18:41:17;101067.81;;;20.17;69.99
24996;BME280;13016;52.162;21.034;2022-10-16T18:43:43;101065.13;;;20.17;70.22
24996;BME280;13016;52.162;21.034;2022-10-16T18:46:30;101069.63;;;20.16;69.98
24996;BME280;13016;52.162;21.034;2022-10-16T18:48:57;101064.88;;;19.99;70.80
24996;BME280;13016;52.162;21.034;2022-10-16T18:51:23;101066.84;;;19.88;71.21
24996;BME280;13016;52.162;21.034;2022-10-16T18:53:51;101074.91;;;19.88;71.58
24996;BME280;13016;52.162;21.034;2022-10-16T18:56:19;101069.69;;;19.96;71.18
24996;BME280;13016;52.162;21.034;2022-10-16T18:58:46;101069.31;;;19.80;71.62
24996;BME280;13016;52.162;21.034;2022-10-16T19:01:13;101078.91;;;19.73;71.70
24996;BME280;13016;52.162;21.034;2022-10-16T19:03:39;101079.53;;;19.86;71.62
24996;BME280;13016;52.162;21.034;2022-10-16T19:06:07;101085.88;;;19.85;71.37
24996;BME280;13016;52.162;21.034;2022-10-16T19:08:34;101076.88;;;19.86;71.38
24996;BME280;13016;52.162;21.034;2022-10-16T19:11:04;101088.56;;;19.85;71.59
24996;BME280;13016;52.162;21.034;2022-10-16T19:13:29;101084.91;;;19.86;71.00
24996;BME280;13016;52.162;21.034;2022-10-16T19:16:20;101087.53;;;19.76;71.54
24996;BME280;13016;52.162;21.034;2022-10-16T19:19:51;101101.03;;;19.86;71.23
24996;BME280;13016;52.162;21.034;2022-10-16T19:21:51;101106.25;;;19.87;71.08
24996;BME280;13016;52.162;21.034;2022-10-16T19:24:16;101115.19;;;19.97;70.50
24996;BME280;13016;52.162;21.034;2022-10-16T19:26:42;101119.91;;;20.05;70.02
24996;BME280;13016;52.162;21.034;2022-10-16T19:29:08;101117.13;;;20.16;69.73
24996;BME280;13016;52.162;21.034;2022-10-16T19:31:34;101125.63;;;20.21;69.08
24996;BME280;13016;52.162;21.034;2022-10-16T19:34:00;101122.75;;;20.13;69.13
24996;BME280;13016;52.162;21.034;2022-10-16T19:36:31;101124.53;;;20.33;68.55
24996;BME280;13016;52.162;21.034;2022-10-16T19:38:59;101136.88;;;20.45;67.84
24996;BME280;13016;52.162;21.034;2022-10-16T19:41:26;101141.38;;;20.25;67.92
24996;BME280;13016;52.162;21.034;2022-10-16T19:43:52;101132.66;;;20.12;68.67
24996;BME280;13016;52.162;21.034;2022-10-16T19:46:23;101131.91;;;20.01;69.29
24996;BME280;13016;52.162;21.034;2022-10-16T19:49:01;101129.47;;;19.68;70.45
24996;BME280;13016;52.162;21.034;2022-10-16T19:51:27;101139.63;;;19.64;70.92
24996;BME280;13016;52.162;21.034;2022-10-16T19:53:57;101139.75;;;19.63;71.00
24996;BME280;13016;52.162;21.034;2022-10-16T19:56:24;101133.16;;;19.46;71.65
24996;BME280;13016;52.162;21.034;2022-10-16T19:58:51;101135.72;;;19.48;71.54
24996;BME280;13016;52.162;21.034;2022-10-16T20:01:17;101148.78;;;19.41;71.67
24996;BME280;13016;52.162;21.034;2022-10-16T20:03:44;101155.59;;;19.45;71.63
24996;BME280;13016;52.162;21.034;2022-10-16T20:06:10;101152.91;;;19.45;71.66
24996;BME280;13016;52.162;21.034;2022-10-16T20:08:37;101155.13;;;19.40;71.81
24996;BME280;13016;52.162;21.034;2022-10-16T20:11:03;101152.88;;;19.35;71.99
24996;BME280;13016;52.162;21.034;2022-10-16T20:13:30;101156.00;;;19.29;72.55
24996;BME280;13016;52.162;21.034;2022-10-16T20:15:56;101163.97;;;19.31;72.26
24996;BME280;13016;52.162;21.034;2022-10-16T20:18:21;101165.19;;;19.27;72.21
24996;BME280;13016;52.162;21.034;2022-10-16T20:20:48;101164.13;;;19.18;72.78
24996;BME280;13016;52.162;21.034;2022-10-16T20:23:14;101162.81;;;19.13;72.86
24996;BME280;13016;52.162;21.034;2022-10-16T20:25:40;101168.78;;;19.16;73.08
24996;BME280;13016;52.162;21.034;2022-10-16T20:31:13;101173.00;;;19.30;72.26
24996;BME280;13016;52.162;21.034;2022-10-16T20:33:46;101174.31;;;19.35;71.93
24996;BME280;13016;52.162;21.034;2022-10-16T20:36:15;101179.44;;;19.27;72.24
24996;BME280;13016;52.162;21.034;2022-10-16T20:38:41;101182.06;;;19.18;72.42
24996;BME280;13016;52.162;21.034;2022-10-16T20:41:07;101194.47;;;19.19;72.45
24996;BME280;13016;52.162;21.034;2022-10-16T20:43:34;101196.44;;;19.17;72.32
24996;BME280;13016;52.162;21.034;2022-10-16T20:46:02;101199.34;;;19.25;71.84
24996;BME280;13016;52.162;21.034;2022-10-16T20:48:27;101202.97;;;19.24;72.28
24996;BME280;13016;52.162;21.034;2022-10-16T20:50:53;101202.31;;;19.11;72.08
24996;BME280;13016;52.162;21.034;2022-10-16T20:53:18;101203.19;;;19.00;73.00
24996;BME280;13016;52.162;21.034;2022-10-16T20:55:43;101201.72;;;19.07;72.58
24996;BME280;13016;52.162;21.034;2022-10-16T20:58:09;101203.88;;;19.13;72.49
24996;BME280;13016;52.162;21.034;2022-10-16T21:00:34;101211.69;;;19.16;72.05
24996;BME280;13016;52.162;21.034;2022-10-16T21:02:59;101215.09;;;19.18;71.98
24996;BME280;13016;52.162;21.034;2022-10-16T21:05:25;101217.19;;;19.15;71.88
24996;BME280;13016;52.162;21.034;2022-10-16T21:07:50;101215.88;;;18.98;72.39
24996;BME280;13016;52.162;21.034;2022-10-16T21:10:15;101217.09;;;18.94;72.99
24996;BME280;13016;52.162;21.034;2022-10-16T21:12:40;101213.19;;;18.98;72.84
24996;BME280;13016;52.162;21.034;2022-10-16T21:15:06;101210.06;;;18.82;73.04
24996;BME280;13016;52.162;21.034;2022-10-16T21:17:32;101217.16;;;18.72;73.78
24996;BME280;13016;52.162;21.034;2022-10-16T21:19:57;101219.09;;;18.81;73.58
24996;BME280;13016;52.162;21.034;2022-10-16T21:22:22;101218.41;;;18.57;74.19
24996;BME280;13016;52.162;21.034;2022-10-16T21:24:47;101216.59;;;18.47;74.90
24996;BME280;13016;52.162;21.034;2022-10-16T21:27:13;101220.25;;;18.46;75.14
24996;BME280;13016;52.162;21.034;2022-10-16T21:29:38;101213.03;;;18.46;75.20
24996;BME280;13016;52.162;21.034;2022-10-16T21:32:03;101217.88;;;18.63;74.71
24996;BME280;13016;52.162;21.034;2022-10-16T21:34:28;101225.06;;;18.74;73.83
24996;BME280;13016;52.162;21.034;2022-10-16T21:36:54;101224.84;;;18.66;73.67
24996;BME280;13016;52.162;21.034;2022-10-16T21:39:19;101231.91;;;18.45;74.72
24996;BME280;13016;52.162;21.034;2022-10-16T21:41:47;101232.41;;;18.50;74.59
24996;BME280;13016;52.162;21.034;2022-10-16T21:44:13;101236.19;;;18.47;74.68
24996;BME280;13016;52.162;21.034;2022-10-16T21:46:39;101229.97;;;18.47;74.54
24996;BME280;13016;52.162;21.034;2022-10-16T21:49:10;101235.47;;;18.45;74.54
24996;BME280;13016;52.162;21.034;2022-10-16T21:51:41;101238.63;;;18.50;74.53
24996;BME280;13016;52.162;21.034;2022-10-16T21:54:10;101242.78;;;18.54;74.19
24996;BME280;13016;52.162;21.034;2022-10-16T21:56:35;101241.66;;;18.68;73.93
24996;BME280;13016;52.162;21.034;2022-10-16T21:59:01;101236.81;;;18.51;73.99
24996;BME280;13016;52.162;21.034;2022-10-16T22:01:27;101247.50;;;18.62;73.83
24996;BME280;13016;52.162;21.034;2022-10-16T22:03:53;101248.72;;;18.80;72.99
24996;BME280;13016;52.162;21.034;2022-10-16T22:06:20;101247.72;;;18.81;71.97
24996;BME280;13016;52.162;21.034;2022-10-16T22:08:48;101261.50;;;18.65;72.69
24996;BME280;13016;52.162;21.034;2022-10-16T22:11:19;101254.22;;;18.56;73.50
24996;BME280;13016;52.162;21.034;2022-10-16T22:13:45;101260.78;;;18.41;74.12
24996;BME280;13016;52.162;21.034;2022-10-16T22:16:11;101252.72;;;18.30;74.65
24996;BME280;13016;52.162;21.034;2022-10-16T22:18:37;101261.13;;;18.37;74.66
24996;BME280;13016;52.162;21.034;2022-10-16T22:21:05;101261.88;;;18.50;74.30
24996;BME280;13016;52.162;21.034;2022-10-16T22:23:31;101264.44;;;18.62;73.69
24996;BME280;13016;52.162;21.034;2022-10-16T22:26:01;101258.09;;;18.63;72.76
24996;BME280;13016;52.162;21.034;2022-10-16T22:28:27;101264.69;;;18.59;72.78
24996;BME280;13016;52.162;21.034;2022-10-16T22:30:52;101267.22;;;18.39;73.58
24996;BME280;13016;52.162;21.034;2022-10-16T22:33:17;101263.72;;;18.49;73.18
24996;BME280;13016;52.162;21.034;2022-10-16T22:35:42;101265.91;;;18.44;73.47
24996;BME280;13016;52.162;21.034;2022-10-16T22:38:08;101270.84;;;18.38;73.86
24996;BME280;13016;52.162;21.034;2022-10-16T22:40:36;101276.53;;;18.46;73.73
24996;BME280;13016;52.162;21.034;2022-10-16T22:43:02;101279.53;;;18.41;73.41
24996;BME280;13016;52.162;21.034;2022-10-16T22:45:29;101283.78;;;18.33;73.71
24996;BME280;13016;52.162;21.034;2022-10-16T22:47:55;101283.66;;;18.23;74.01
24996;BME280;13016;52.162;21.034;2022-10-16T22:50:20;101287.16;;;18.23;74.55
24996;BME280;13016;52.162;21.034;2022-10-16T22:52:45;101285.97;;;18.27;73.77
24996;BME280;13016;52.162;21.034;2022-10-16T22:55:11;101290.22;;;18.19;74.26
24996;BME280;13016;52.162;21.034;2022-10-16T22:57:36;101284.69;;;17.98;75.22
24996;BME280;13016;52.162;21.034;2022-10-16T23:00:04;101285.75;;;17.85;76.22
24996;BME280;13016;52.162;21.034;2022-10-16T23:02:29;101286.94;;;17.81;76.54
24996;BME280;13016;52.162;21.034;2022-10-16T23:04:54;101293.63;;;17.75;77.20
24996;BME280;13016;52.162;21.034;2022-10-16T23:07:20;101284.84;;;17.73;76.82
24996;BME280;13016;52.162;21.034;2022-10-16T23:09:45;101293.97;;;17.71;77.45
24996;BME280;13016;52.162;21.034;2022-10-16T23:12:10;101283.72;;;17.65;77.30
24996;BME280;13016;52.162;21.034;2022-10-16T23:14:35;101292.38;;;17.68;77.47
24996;BME280;13016;52.162;21.034;2022-10-16T23:17:01;101291.56;;;17.79;77.05
24996;BME280;13016;52.162;21.034;2022-10-16T23:19:26;101296.28;;;17.75;76.79
24996;BME280;13016;52.162;21.034;2022-10-16T23:21:51;101288.13;;;17.66;76.93
24996;BME280;13016;52.162;21.034;2022-10-16T23:24:16;101289.78;;;17.56;77.53
24996;BME280;13016;52.162;21.034;2022-10-16T23:26:42;101298.41;;;17.59;77.84
24996;BME280;13016;52.162;21.034;2022-10-16T23:29:08;101297.34;;;17.62;77.74
24996;BME280;13016;52.162;21.034;2022-10-16T23:31:34;101304.50;;;17.85;77.38
24996;BME280;13016;52.162;21.034;2022-10-16T23:33:59;101309.25;;;17.92;76.48
24996;BME280;13016;52.162;21.034;2022-10-16T23:36:24;101305.13;;;17.99;75.29
24996;BME280;13016;52.162;21.034;2022-10-16T23:38:50;101300.63;;;17.65;76.18
24996;BME280;13016;52.162;21.034;2022-10-16T23:41:16;101303.19;;;17.43;77.18
24996;BME280;13016;52.162;21.034;2022-10-16T23:43:42;101307.69;;;17.43;77.55
24996;BME280;13016;52.162;21.034;2022-10-16T23:46:09;101311.75;;;17.48;77.27
24996;BME280;13016;52.162;21.034;2022-10-16T23:48:36;101323.09;;;17.52;77.65
24996;BME280;13016;52.162;21.034;2022-10-16T23:51:01;101316.69;;;17.65;77.44
24996;BME280;13016;52.162;21.034;2022-10-16T23:53:26;101336.91;;;17.69;76.51
24996;BME280;13016;52.162;21.034;2022-10-16T23:55:51;101345.44;;;17.74;76.35
24996;BME280;13016;52.162;21.034;2022-10-16T23:58:17;101353.38;;;17.76;75.87
